עמוד ראשי
METAR-TAF:

METAR-TAF

שדות תעופה :

Catacamas, הונדורס

קו רוחב: 14-54N, קו אורך: 085-56W, גובה: 442מטר

תצפית מזג אוויר נוכחית

הדו"ח נערך לפני 41דקות, בשעה 22:00 UTC
רוח 2קשר עם כיוונים משתנים
טמפרטורת 27 צלסיוס
לחות 79%
לחץ 1014 hPa
ראות 10 קילומטר או יותר
מעט עננים בגובה 2600רגל
מעט עננים בגובה 2800רגל , קומולונימבוס.
עננים פזורים בגובה 8000רגל

METAR: MHCA 252200Z VRB02KT 9999 FEW026 FEW028CB SCT080 27/23 Q1014 RETS RERA CB NE S SW

זמן: 16:41 (22:41 UTC)


TAF: חסר

תצפיות ותחזיות מזג אוויר לגבי יותר מ- 4,000 שדות תעופה ברחבי העולם. דוחות METAR ו- TAF.

התחנות הזמינות מסומנות בנקודות צהובות ואדומות על גבי המפה.

העבר את העכבר לנקודה הצבעונית על מנת לראות את שם התחנה.

לאחר מכן, לחץ כדי לראות את תוכן ואת תחזיות מזג האוויר.

כדי לשנות את המפה: לחץ על הכפתורים הירוקים עם הפלוס השחור כדי להתקרב; על הכפתור הירוק עם המקף כדי להתרחק; או בחיצים הירוקים למפות סמוכות.


METAR-TAF: